QFA321 YMML-YSSY
Flight info
| Callsign | QFA321 |
|---|---|
| Flight time | 1h 11m |
| Altitude | 37000 |
| Route | DOSEL2/34 DOSEL Y59 RIVET |
| Aircraft | A21N/M-VGDW/C |
Departure
| Time | 2026-05-04 08:17 |
|---|---|
| Airport | Melbourne Airport (YMML) |
Arrival
| Time | 2026-05-04 09:29 |
|---|---|
| Airport | Sydney Kingsford Smith International Airport (YSSY) |
| Time | Latitude | Longitude | Altitude | Speed | Heading |
|---|---|---|---|---|---|
| 2026-05-04 07:31 | -37.66759 | 144.84915 | 407 ft | 0 kts | 82° |
| 2026-05-04 08:02 | -37.66762 | 144.84889 | 407 ft | 1 kts | 82° |
| 2026-05-04 08:02 | -37.66766 | 144.84872 | 406 ft | 2 kts | 60° |
| 2026-05-04 08:02 | -37.66774 | 144.84857 | 406 ft | 2 kts | 42° |
| 2026-05-04 08:03 | -37.66787 | 144.84847 | 406 ft | 2 kts | 22° |
| 2026-05-04 08:03 | -37.66801 | 144.84842 | 406 ft | 2 kts | 2° |
| 2026-05-04 08:03 | -37.66809 | 144.84842 | 406 ft | 1 kts | 350° |
| 2026-05-04 08:03 | -37.66814 | 144.84843 | 406 ft | 0 kts | 352° |
| 2026-05-04 08:10 | -37.66671 | 144.84457 | 395 ft | 17 kts | 264° |
| 2026-05-04 08:11 | -37.66689 | 144.84306 | 392 ft | 17 kts | 260° |
| 2026-05-04 08:11 | -37.66723 | 144.84032 | 394 ft | 13 kts | 249° |
| 2026-05-04 08:11 | -37.66812 | 144.83986 | 390 ft | 18 kts | 173° |
| 2026-05-04 08:12 | -37.66953 | 144.84015 | 387 ft | 21 kts | 171° |
| 2026-05-04 08:12 | -37.67099 | 144.84042 | 383 ft | 21 kts | 171° |
| 2026-05-04 08:12 | -37.67252 | 144.84071 | 378 ft | 23 kts | 171° |
| 2026-05-04 08:12 | -37.67414 | 144.84106 | 375 ft | 24 kts | 169° |
| 2026-05-04 08:13 | -37.67577 | 144.84135 | 371 ft | 21 kts | 173° |
| 2026-05-04 08:13 | -37.67710 | 144.84158 | 368 ft | 14 kts | 171° |
| 2026-05-04 08:13 | -37.67753 | 144.84168 | 366 ft | 0 kts | 171° |
| 2026-05-04 08:14 | -37.67771 | 144.84170 | 366 ft | 4 kts | 171° |
| 2026-05-04 08:14 | -37.67820 | 144.84181 | 364 ft | 9 kts | 171° |
| 2026-05-04 08:14 | -37.67869 | 144.84132 | 361 ft | 7 kts | 256° |
| 2026-05-04 08:16 | -37.67856 | 144.83966 | 359 ft | 0 kts | 353° |
| 2026-05-04 08:17 | -37.67836 | 144.83963 | 360 ft | 22 kts | 353° |
| 2026-05-04 08:17 | -37.67380 | 144.83882 | 373 ft | 107 kts | 352° |
| 2026-05-04 08:17 | -37.66409 | 144.83691 | 535 ft | 162 kts | 352° |
| 2026-05-04 08:17 | -37.65324 | 144.83493 | 1457 ft | 160 kts | 350° |
| 2026-05-04 08:19 | -37.55999 | 144.84126 | 5448 ft | 264 kts | 19° |
| 2026-05-04 08:19 | -37.54354 | 144.85152 | 6289 ft | 267 kts | 20° |
| 2026-05-04 08:20 | -37.52683 | 144.86186 | 7120 ft | 270 kts | 20° |
| 2026-05-04 08:20 | -37.50987 | 144.87225 | 7920 ft | 274 kts | 20° |
| 2026-05-04 08:20 | -37.49278 | 144.88268 | 8684 ft | 277 kts | 19° |
| 2026-05-04 08:20 | -37.47540 | 144.89323 | 9441 ft | 281 kts | 20° |
| 2026-05-04 08:21 | -37.45765 | 144.90399 | 10156 ft | 285 kts | 20° |
| 2026-05-04 08:21 | -37.44029 | 144.91719 | 10656 ft | 303 kts | 32° |
| 2026-05-04 08:21 | -37.42492 | 144.93633 | 10964 ft | 327 kts | 46° |
| 2026-05-04 08:21 | -37.41105 | 144.96005 | 11341 ft | 343 kts | 50° |
| 2026-05-04 08:22 | -37.39725 | 144.98498 | 11966 ft | 349 kts | 51° |
| 2026-05-04 08:22 | -37.38344 | 145.01009 | 12667 ft | 352 kts | 50° |
| 2026-05-04 08:24 | -37.28162 | 145.19084 | 16945 ft | 376 kts | 50° |
| 2026-05-04 08:24 | -37.26629 | 145.21782 | 17526 ft | 378 kts | 50° |
| 2026-05-04 08:24 | -37.25103 | 145.24469 | 18097 ft | 381 kts | 50° |
| 2026-05-04 08:24 | -37.23573 | 145.27156 | 18637 ft | 384 kts | 50° |
| 2026-05-04 08:25 | -37.22019 | 145.29886 | 19163 ft | 386 kts | 49° |
| 2026-05-04 08:25 | -37.20451 | 145.32638 | 19670 ft | 389 kts | 49° |
| 2026-05-04 08:25 | -37.18889 | 145.35376 | 20158 ft | 392 kts | 49° |
| 2026-05-04 08:25 | -37.17292 | 145.38170 | 20648 ft | 395 kts | 49° |
| 2026-05-04 08:26 | -37.15677 | 145.40996 | 21125 ft | 398 kts | 49° |
| 2026-05-04 08:27 | -37.04142 | 145.61101 | 24112 ft | 417 kts | 47° |
| 2026-05-04 08:28 | -37.02435 | 145.64062 | 24475 ft | 419 kts | 46° |
| 2026-05-04 08:28 | -37.00746 | 145.66995 | 24836 ft | 421 kts | 46° |
| 2026-05-04 08:28 | -36.99031 | 145.69966 | 25204 ft | 422 kts | 45° |
| 2026-05-04 08:28 | -36.97310 | 145.72948 | 25542 ft | 423 kts | 45° |
| 2026-05-04 08:29 | -36.95592 | 145.75923 | 25886 ft | 424 kts | 45° |
| 2026-05-04 08:29 | -36.93876 | 145.78883 | 26181 ft | 426 kts | 44° |
| 2026-05-04 08:29 | -36.92114 | 145.81921 | 26479 ft | 429 kts | 44° |
| 2026-05-04 08:31 | -36.79682 | 146.03302 | 28649 ft | 441 kts | 44° |
| 2026-05-04 08:33 | -36.66758 | 146.25382 | 30481 ft | 458 kts | 44° |
| 2026-05-04 08:33 | -36.64879 | 146.28584 | 30783 ft | 458 kts | 44° |
| 2026-05-04 08:35 | -36.51782 | 146.50816 | 33187 ft | 454 kts | 44° |
| 2026-05-04 08:35 | -36.49917 | 146.53967 | 33473 ft | 454 kts | 44° |
| 2026-05-04 08:35 | -36.48036 | 146.57143 | 33746 ft | 454 kts | 44° |
| 2026-05-04 08:35 | -36.46140 | 146.60339 | 34011 ft | 454 kts | 45° |
| 2026-05-04 08:37 | -36.34858 | 146.79309 | 35017 ft | 458 kts | 44° |
| 2026-05-04 08:37 | -36.32971 | 146.82472 | 35024 ft | 457 kts | 44° |
| 2026-05-04 08:38 | -36.29203 | 146.88783 | 35019 ft | 457 kts | 44° |
| 2026-05-04 08:38 | -36.25365 | 146.95184 | 35019 ft | 467 kts | 45° |
| 2026-05-04 08:40 | -36.09768 | 147.21129 | 35029 ft | 472 kts | 44° |
| 2026-05-04 08:41 | -36.05862 | 147.27597 | 35031 ft | 472 kts | 44° |
| 2026-05-04 08:41 | -36.01935 | 147.34087 | 35030 ft | 471 kts | 44° |
| 2026-05-04 08:42 | -35.98004 | 147.40564 | 35039 ft | 473 kts | 44° |
| 2026-05-04 08:42 | -35.94044 | 147.47080 | 35043 ft | 472 kts | 44° |
| 2026-05-04 08:43 | -35.90116 | 147.53529 | 35049 ft | 473 kts | 44° |
| 2026-05-04 08:43 | -35.86175 | 147.59988 | 35053 ft | 473 kts | 44° |
| 2026-05-04 08:44 | -35.82204 | 147.66484 | 35053 ft | 472 kts | 44° |
| 2026-05-04 08:46 | -35.66385 | 147.92255 | 35068 ft | 473 kts | 43° |
| 2026-05-04 08:46 | -35.62436 | 147.98660 | 35067 ft | 471 kts | 43° |
| 2026-05-04 08:47 | -35.58479 | 148.05057 | 35074 ft | 472 kts | 43° |
| 2026-05-04 08:47 | -35.54514 | 148.11459 | 35075 ft | 474 kts | 43° |
| 2026-05-04 08:48 | -35.50508 | 148.17915 | 35075 ft | 473 kts | 43° |
| 2026-05-04 08:48 | -35.46526 | 148.24322 | 35076 ft | 473 kts | 43° |
| 2026-05-04 08:49 | -35.42553 | 148.30702 | 35073 ft | 473 kts | 43° |
| 2026-05-04 08:50 | -35.28472 | 148.52892 | 35067 ft | 461 kts | 34° |
| 2026-05-04 08:51 | -35.26018 | 148.55255 | 35068 ft | 440 kts | 21° |
| 2026-05-04 08:51 | -35.23376 | 148.56828 | 35061 ft | 408 kts | 9° |
| 2026-05-04 08:51 | -35.20716 | 148.57767 | 35067 ft | 391 kts | 4° |
| 2026-05-04 08:51 | -35.18081 | 148.58537 | 35067 ft | 389 kts | 3° |
| 2026-05-04 08:52 | -35.12814 | 148.60008 | 35066 ft | 388 kts | 2° |
| 2026-05-04 08:52 | -35.07565 | 148.61462 | 35062 ft | 388 kts | 3° |
| 2026-05-04 08:54 | -34.86650 | 148.69324 | 35063 ft | 439 kts | 26° |
| 2026-05-04 08:55 | -34.84273 | 148.71843 | 35063 ft | 459 kts | 35° |
| 2026-05-04 08:55 | -34.82156 | 148.74802 | 35062 ft | 471 kts | 40° |
| 2026-05-04 08:55 | -34.78041 | 148.81044 | 35064 ft | 473 kts | 41° |
| 2026-05-04 08:57 | -34.63611 | 149.02743 | 34380 ft | 475 kts | 41° |
| 2026-05-04 09:01 | -34.38222 | 149.48425 | 25501 ft | 455 kts | 61° |
| 2026-05-04 09:01 | -34.37081 | 149.52010 | 24995 ft | 450 kts | 61° |
| 2026-05-04 09:01 | -34.35944 | 149.55550 | 24505 ft | 445 kts | 61° |
| 2026-05-04 09:01 | -34.34824 | 149.59012 | 24027 ft | 441 kts | 61° |
| 2026-05-04 09:02 | -34.33704 | 149.62456 | 23532 ft | 437 kts | 61° |
| 2026-05-04 09:02 | -34.32589 | 149.65878 | 23062 ft | 432 kts | 60° |
| 2026-05-04 09:02 | -34.31496 | 149.69225 | 22583 ft | 428 kts | 60° |
| 2026-05-04 09:02 | -34.30415 | 149.72531 | 22109 ft | 423 kts | 60° |
| 2026-05-04 09:03 | -34.29336 | 149.75829 | 21645 ft | 419 kts | 60° |
| 2026-05-04 09:03 | -34.28271 | 149.79082 | 21181 ft | 415 kts | 60° |
| 2026-05-04 09:03 | -34.27216 | 149.82298 | 20700 ft | 411 kts | 61° |
| 2026-05-04 09:03 | -34.26178 | 149.85458 | 20245 ft | 407 kts | 61° |
| 2026-05-04 09:04 | -34.25135 | 149.88635 | 19762 ft | 403 kts | 61° |
| 2026-05-04 09:04 | -34.24102 | 149.91774 | 19279 ft | 400 kts | 61° |
| 2026-05-04 09:04 | -34.23093 | 149.94838 | 18746 ft | 399 kts | 61° |
| 2026-05-04 09:04 | -34.22062 | 149.97963 | 18183 ft | 398 kts | 61° |
| 2026-05-04 09:05 | -34.21038 | 150.01060 | 17664 ft | 395 kts | 61° |
| 2026-05-04 09:05 | -34.20032 | 150.04111 | 17175 ft | 391 kts | 62° |
| 2026-05-04 09:05 | -34.19035 | 150.07130 | 16699 ft | 389 kts | 61° |
| 2026-05-04 09:05 | -34.18071 | 150.10200 | 16194 ft | 388 kts | 64° |
| 2026-05-04 09:06 | -34.17288 | 150.13297 | 15700 ft | 389 kts | 68° |
| 2026-05-04 09:07 | -34.12627 | 150.34865 | 12370 ft | 372 kts | 70° |
| 2026-05-04 09:08 | -34.11972 | 150.37862 | 11903 ft | 369 kts | 70° |
| 2026-05-04 09:08 | -34.11322 | 150.40837 | 11435 ft | 367 kts | 70° |
| 2026-05-04 09:08 | -34.10677 | 150.43788 | 10965 ft | 364 kts | 70° |
| 2026-05-04 09:08 | -34.10041 | 150.46704 | 10635 ft | 357 kts | 70° |
| 2026-05-04 09:09 | -34.09420 | 150.49554 | 10421 ft | 346 kts | 70° |
| 2026-05-04 09:09 | -34.08816 | 150.52322 | 10293 ft | 332 kts | 70° |
| 2026-05-04 09:09 | -34.08254 | 150.54941 | 10159 ft | 320 kts | 70° |
| 2026-05-04 09:09 | -34.07704 | 150.57509 | 10034 ft | 308 kts | 70° |
| 2026-05-04 09:10 | -34.07174 | 150.59984 | 9730 ft | 304 kts | 70° |
| 2026-05-04 09:10 | -34.06645 | 150.62430 | 9450 ft | 299 kts | 70° |
| 2026-05-04 09:10 | -34.06125 | 150.64838 | 9099 ft | 297 kts | 70° |
| 2026-05-04 09:10 | -34.05607 | 150.67229 | 8709 ft | 296 kts | 69° |
| 2026-05-04 09:11 | -34.05087 | 150.69630 | 8319 ft | 295 kts | 70° |
| 2026-05-04 09:11 | -34.04583 | 150.71968 | 8129 ft | 286 kts | 69° |
| 2026-05-04 09:11 | -34.04087 | 150.74262 | 7997 ft | 283 kts | 70° |
| 2026-05-04 09:11 | -34.03582 | 150.76578 | 7453 ft | 290 kts | 70° |
| 2026-05-04 09:12 | -34.03063 | 150.78944 | 7052 ft | 289 kts | 70° |
| 2026-05-04 09:12 | -34.02537 | 150.81236 | 6883 ft | 279 kts | 69° |
| 2026-05-04 09:14 | -33.98798 | 150.97105 | 6094 ft | 279 kts | 69° |
| 2026-05-04 09:14 | -33.98284 | 150.99379 | 6006 ft | 280 kts | 71° |
| 2026-05-04 09:14 | -33.97823 | 151.01640 | 5987 ft | 280 kts | 71° |
| 2026-05-04 09:14 | -33.97364 | 151.03903 | 5999 ft | 282 kts | 71° |
| 2026-05-04 09:15 | -33.96900 | 151.06207 | 5992 ft | 283 kts | 71° |
| 2026-05-04 09:15 | -33.96444 | 151.08521 | 5995 ft | 282 kts | 72° |
| 2026-05-04 09:15 | -33.95978 | 151.10812 | 5979 ft | 281 kts | 71° |
| 2026-05-04 09:15 | -33.95487 | 151.13104 | 5983 ft | 282 kts | 71° |
| 2026-05-04 09:17 | -34.02902 | 151.28214 | 6025 ft | 267 kts | 133° |
| 2026-05-04 09:18 | -34.04214 | 151.29834 | 6015 ft | 267 kts | 133° |
| 2026-05-04 09:18 | -34.05497 | 151.31413 | 6012 ft | 267 kts | 133° |
| 2026-05-04 09:18 | -34.06813 | 151.33029 | 6015 ft | 268 kts | 133° |
| 2026-05-04 09:18 | -34.08139 | 151.34584 | 6004 ft | 268 kts | 143° |
| 2026-05-04 09:19 | -34.09813 | 151.35539 | 5955 ft | 263 kts | 167° |
| 2026-05-04 09:19 | -34.11604 | 151.36015 | 5493 ft | 269 kts | 172° |
| 2026-05-04 09:19 | -34.13476 | 151.36403 | 4885 ft | 281 kts | 173° |
| 2026-05-04 09:19 | -34.15427 | 151.36774 | 4456 ft | 283 kts | 173° |
| 2026-05-04 09:20 | -34.17349 | 151.37125 | 4160 ft | 280 kts | 173° |
| 2026-05-04 09:20 | -34.19292 | 151.37471 | 3754 ft | 282 kts | 173° |
| 2026-05-04 09:20 | -34.21231 | 151.37808 | 3011 ft | 287 kts | 173° |
| 2026-05-04 09:20 | -34.23223 | 151.38117 | 2376 ft | 284 kts | 178° |
| 2026-05-04 09:21 | -34.25095 | 151.37759 | 2034 ft | 267 kts | 208° |
| 2026-05-04 09:21 | -34.26512 | 151.36415 | 2005 ft | 258 kts | 240° |
| 2026-05-04 09:21 | -34.27171 | 151.34483 | 2008 ft | 245 kts | 269° |
| 2026-05-04 09:21 | -34.26934 | 151.32524 | 2006 ft | 234 kts | 300° |
| 2026-05-04 09:22 | -34.25942 | 151.30995 | 2012 ft | 228 kts | 320° |
| 2026-05-04 09:22 | -34.24753 | 151.29729 | 2003 ft | 227 kts | 322° |
| 2026-05-04 09:22 | -34.23534 | 151.28508 | 1998 ft | 227 kts | 323° |
| 2026-05-04 09:22 | -34.22317 | 151.27309 | 1997 ft | 227 kts | 323° |
| 2026-05-04 09:23 | -34.21066 | 151.26221 | 1990 ft | 213 kts | 331° |
| 2026-05-04 09:23 | -34.19778 | 151.25473 | 1991 ft | 203 kts | 341° |
| 2026-05-04 09:23 | -34.18430 | 151.24974 | 1996 ft | 202 kts | 346° |
| 2026-05-04 09:23 | -34.17060 | 151.24577 | 1999 ft | 202 kts | 347° |
| 2026-05-04 09:25 | -34.08802 | 151.22424 | 1990 ft | 141 kts | 348° |
| 2026-05-04 09:25 | -34.07843 | 151.22179 | 1992 ft | 140 kts | 348° |
| 2026-05-04 09:26 | -34.06877 | 151.21928 | 1941 ft | 142 kts | 348° |
| 2026-05-04 09:26 | -34.05917 | 151.21680 | 1769 ft | 142 kts | 348° |
| 2026-05-04 09:26 | -34.04945 | 151.21426 | 1573 ft | 142 kts | 349° |
| 2026-05-04 09:26 | -34.03978 | 151.21175 | 1370 ft | 142 kts | 349° |
| 2026-05-04 09:27 | -34.03001 | 151.20920 | 1176 ft | 141 kts | 349° |
| 2026-05-04 09:27 | -34.02048 | 151.20671 | 992 ft | 141 kts | 349° |
| 2026-05-04 09:27 | -34.01079 | 151.20419 | 809 ft | 140 kts | 349° |
| 2026-05-04 09:27 | -34.00126 | 151.20171 | 632 ft | 140 kts | 349° |
| 2026-05-04 09:28 | -33.99175 | 151.19925 | 453 ft | 139 kts | 349° |
| 2026-05-04 09:28 | -33.98231 | 151.19679 | 270 ft | 138 kts | 350° |
| 2026-05-04 09:28 | -33.97288 | 151.19434 | 86 ft | 137 kts | 350° |
| 2026-05-04 09:28 | -33.96404 | 151.19208 | 10 ft | 115 kts | 348° |
| 2026-05-04 09:29 | -33.95786 | 151.19047 | 10 ft | 68 kts | 348° |
| 2026-05-04 09:29 | -33.95416 | 151.18929 | 12 ft | 49 kts | 334° |
| 2026-05-04 09:29 | -33.95185 | 151.18739 | 15 ft | 25 kts | 318° |
| 2026-05-04 09:29 | -33.95092 | 151.18593 | 15 ft | 20 kts | 270° |
| 2026-05-04 09:30 | -33.95117 | 151.18433 | 16 ft | 15 kts | 258° |
| 2026-05-04 09:30 | -33.95134 | 151.18335 | 17 ft | 11 kts | 259° |
| 2026-05-04 09:30 | -33.95151 | 151.18243 | 18 ft | 10 kts | 257° |
| 2026-05-04 09:30 | -33.95167 | 151.18156 | 18 ft | 10 kts | 257° |
| 2026-05-04 09:31 | -33.95184 | 151.18065 | 18 ft | 11 kts | 258° |
| 2026-05-04 09:31 | -33.95176 | 151.17975 | 19 ft | 12 kts | 318° |
| 2026-05-04 09:31 | -33.95087 | 151.17941 | 20 ft | 14 kts | 346° |
| 2026-05-04 09:31 | -33.94978 | 151.17912 | 24 ft | 17 kts | 348° |
| 2026-05-04 09:32 | -33.94847 | 151.17880 | 25 ft | 19 kts | 345° |
| 2026-05-04 09:32 | -33.94720 | 151.17847 | 25 ft | 16 kts | 348° |
| 2026-05-04 09:34 | -33.94612 | 151.17818 | 25 ft | 1 kts | 348° |
| 2026-05-04 09:34 | -33.94580 | 151.17810 | 25 ft | 8 kts | 348° |
| 2026-05-04 09:34 | -33.94498 | 151.17787 | 25 ft | 17 kts | 346° |
| 2026-05-04 09:34 | -33.94307 | 151.17726 | 19 ft | 22 kts | 347° |
| 2026-05-04 09:35 | -33.94154 | 151.17682 | 15 ft | 23 kts | 345° |
| 2026-05-04 09:35 | -33.94001 | 151.17638 | 10 ft | 20 kts | 347° |
| 2026-05-04 09:35 | -33.93886 | 151.17609 | 9 ft | 16 kts | 348° |
| 2026-05-04 09:35 | -33.93780 | 151.17580 | 9 ft | 15 kts | 348° |
| 2026-05-04 09:37 | -33.92995 | 151.17429 | 22 ft | 11 kts | 51° |
| 2026-05-04 09:37 | -33.92995 | 151.17534 | 22 ft | 13 kts | 101° |
| 2026-05-04 09:38 | -33.93015 | 151.17648 | 21 ft | 14 kts | 101° |
| 2026-05-04 09:38 | -33.93049 | 151.17743 | 22 ft | 8 kts | 117° |
| 2026-05-04 09:38 | -33.93070 | 151.17809 | 22 ft | 6 kts | 118° |
| 2026-05-04 09:38 | -33.93110 | 151.17809 | 22 ft | 6 kts | 192° |
| 2026-05-04 09:39 | -33.93141 | 151.17802 | 22 ft | 0 kts | 189° |